createdAt,value
2022-12-11T00:01:39.880Z,99930.36
2022-12-11T00:05:09.766Z,99928.11
2022-12-11T00:08:41.613Z,99924.51
2022-12-11T00:12:11.498Z,99925.39
2022-12-11T00:15:45.708Z,99923.21
2022-12-11T00:19:15.869Z,99921.19
2022-12-11T00:22:46.897Z,99917.48
2022-12-11T00:26:17.633Z,99909.84
2022-12-11T00:29:47.388Z,99902.59
2022-12-11T00:33:19.321Z,99904.86
2022-12-11T00:36:48.406Z,99905.06
2022-12-11T00:40:18.633Z,99902.89
2022-12-11T00:43:45.232Z,99902.74
2022-12-11T00:47:14.797Z,99903.77
2022-12-11T00:50:45.360Z,99899.73
2022-12-11T00:54:17.650Z,99898.59
2022-12-11T00:57:46.265Z,99902.19
2022-12-11T01:01:17.622Z,99900.04
2022-12-11T01:04:45.450Z,99906.12
2022-12-11T01:08:16.625Z,99902.77
2022-12-11T01:11:59.785Z,99901.02
2022-12-11T01:15:44.349Z,99897.59
2022-12-11T01:19:12.197Z,99890.27
2022-12-11T01:22:39.466Z,99894.02
2022-12-11T01:26:11.613Z,99896.92
2022-12-11T01:29:40.292Z,99895.07
2022-12-11T01:33:08.441Z,99892.98
2022-12-11T01:36:35.880Z,99886.44
2022-12-11T01:40:10.303Z,99883.94
2022-12-11T01:43:38.140Z,99881.48
2022-12-11T01:47:08.058Z,99878.42
2022-12-11T01:50:40.283Z,99879.63
2022-12-11T01:54:13.958Z,99879.52
2022-12-11T01:57:44.585Z,99881.14
2022-12-11T02:01:16.709Z,99888.59
2022-12-11T02:04:48.827Z,99895.81
2022-12-11T02:08:17.633Z,99899.77
2022-12-11T02:11:56.904Z,99900.36
2022-12-11T02:15:32.451Z,99903.87
2022-12-11T02:19:11.453Z,99899.97
2022-12-11T02:23:11.494Z,99896.42
2022-12-11T02:27:10.653Z,99896.80
2022-12-11T02:30:43.604Z,99901.06
2022-12-11T02:34:17.867Z,99899.73
2022-12-11T02:37:52.431Z,99889.46
2022-12-11T02:41:26.522Z,99890.56
2022-12-11T02:44:58.487Z,99881.02
2022-12-11T02:48:28.172Z,99875.44
2022-12-11T02:51:59.207Z,99877.02
2022-12-11T02:55:29.473Z,99885.55
2022-12-11T02:59:04.324Z,99881.02
2022-12-11T03:02:34.168Z,99881.88
2022-12-11T03:06:04.333Z,99881.20
2022-12-11T03:09:36.531Z,99875.80
2022-12-11T03:13:09.550Z,99872.98
2022-12-11T03:16:44.406Z,99870.92
2022-12-11T03:20:21.480Z,99862.66
2022-12-11T03:24:03.020Z,99853.98
2022-12-11T03:27:41.051Z,99856.25
2022-12-11T03:31:15.925Z,99853.42
2022-12-11T03:35:10.780Z,99848.14
2022-12-11T03:38:43.008Z,99841.88
2022-12-11T03:42:17.827Z,99845.67
2022-12-11T03:45:55.638Z,99845.51
2022-12-11T03:49:30.281Z,99844.48
2022-12-11T03:52:59.654Z,99837.30
2022-12-11T03:56:29.597Z,99838.16
2022-12-11T03:59:59.749Z,99839.23
2022-12-11T04:03:29.674Z,99840.92
2022-12-11T04:06:58.023Z,99841.59
2022-12-11T04:10:26.941Z,99838.43
2022-12-11T04:14:10.693Z,99841.80
2022-12-11T04:17:58.053Z,99847.23
2022-12-11T04:21:48.615Z,99847.91
2022-12-11T04:25:21.488Z,99845.54
2022-12-11T04:28:51.208Z,99849.32
2022-12-11T04:32:19.191Z,99846.96
2022-12-11T04:35:49.709Z,99834.98
2022-12-11T04:39:21.499Z,99832.48
2022-12-11T04:42:52.519Z,99826.36
2022-12-11T04:46:21.475Z,99828.27
2022-12-11T04:49:50.324Z,99831.58
2022-12-11T04:53:17.124Z,99836.94
2022-12-11T04:56:43.996Z,99836.44
2022-12-11T05:00:14.248Z,99836.14
2022-12-11T05:03:41.811Z,99836.53
2022-12-11T05:07:11.047Z,99843.21
2022-12-11T05:10:37.727Z,99831.81
2022-12-11T05:14:04.623Z,99831.49
2022-12-11T05:17:31.683Z,99824.52
2022-12-11T05:21:05.409Z,99822.63
2022-12-11T05:24:32.449Z,99823.61
2022-12-11T05:27:59.519Z,99815.89
2022-12-11T05:31:28.473Z,99810.04
2022-12-11T05:34:55.507Z,99805.61
2022-12-11T05:38:22.847Z,99805.02
2022-12-11T05:41:50.202Z,99803.30
2022-12-11T05:45:17.106Z,99793.23
2022-12-11T05:48:44.921Z,99791.48
2022-12-11T05:52:11.691Z,99783.02
2022-12-11T05:55:38.714Z,99784.54
2022-12-11T05:59:07.434Z,99782.31
2022-12-11T06:02:36.240Z,99787.95
2022-12-11T06:06:05.146Z,99785.94
2022-12-11T06:09:32.101Z,99780.92
2022-12-11T06:12:58.984Z,99783.66
2022-12-11T06:16:26.348Z,99788.12
2022-12-11T06:19:55.780Z,99788.69
2022-12-11T06:23:22.322Z,99789.45
2022-12-11T06:26:49.863Z,99791.57
2022-12-11T06:30:17.293Z,99793.16
2022-12-11T06:33:45.274Z,99794.71
2022-12-11T06:37:12.284Z,99796.58
2022-12-11T06:40:38.974Z,99795.73
2022-12-11T06:44:05.846Z,99792.14
2022-12-11T06:47:33.681Z,99788.48
2022-12-11T06:51:00.289Z,99795.73
2022-12-11T06:54:37.294Z,99800.96
2022-12-11T06:58:09.604Z,99799.05
2022-12-11T07:01:36.340Z,99801.42
2022-12-11T07:05:02.957Z,99804.80
2022-12-11T07:08:30.396Z,99815.54
2022-12-11T07:11:56.804Z,99811.96
2022-12-11T07:15:23.261Z,99806.17
2022-12-11T07:18:52.943Z,99804.80
2022-12-11T07:22:23.119Z,99797.33
2022-12-11T07:25:50.276Z,99797.69
2022-12-11T07:29:16.774Z,99797.18
2022-12-11T07:32:44.845Z,99793.63
2022-12-11T07:36:13.641Z,99794.66
2022-12-11T07:39:40.290Z,99791.61
2022-12-11T07:43:06.652Z,99795.17
2022-12-11T07:46:35.126Z,99789.42
2022-12-11T07:50:02.176Z,99793.52
2022-12-11T07:53:29.549Z,99795.92
2022-12-11T07:56:56.101Z,99795.45
2022-12-11T08:00:23.644Z,99793.94
2022-12-11T08:03:50.898Z,99793.27
2022-12-11T08:07:17.541Z,99793.41
2022-12-11T08:10:43.998Z,99796.75
2022-12-11T08:14:10.748Z,99793.46
2022-12-11T08:17:40.217Z,99794.85
2022-12-11T08:21:10.832Z,99796.67
2022-12-11T08:24:37.622Z,99797.52
2022-12-11T08:28:03.965Z,99804.02
2022-12-11T08:31:33.198Z,99797.97
2022-12-11T08:35:00.887Z,99799.04
2022-12-11T08:38:27.340Z,99792.96
2022-12-11T08:41:54.024Z,99790.63
2022-12-11T08:45:21.473Z,99787.91
2022-12-11T08:48:49.356Z,99783.81
2022-12-11T08:52:16.452Z,99778.55
2022-12-11T08:55:43.583Z,99783.81
2022-12-11T08:59:10.062Z,99786.36
2022-12-11T09:02:37.000Z,99787.36
2022-12-11T09:06:07.518Z,99786.20
2022-12-11T09:09:35.238Z,99786.04
2022-12-11T09:13:05.535Z,99791.14
2022-12-11T09:16:37.936Z,99791.48
2022-12-11T09:20:04.621Z,99787.55
2022-12-11T09:23:31.763Z,99777.95
2022-12-11T09:26:58.124Z,99767.31
2022-12-11T09:30:24.805Z,99768.96
2022-12-11T09:33:52.275Z,99762.29
2022-12-11T09:37:20.425Z,99760.05
2022-12-11T09:40:47.598Z,99759.02
2022-12-11T09:44:26.181Z,99752.33
2022-12-11T09:47:58.504Z,99746.81
2022-12-11T09:51:34.631Z,99740.88
2022-12-11T09:55:05.614Z,99729.95
2022-12-11T09:58:42.751Z,99726.06
2022-12-11T10:02:26.158Z,99728.48
2022-12-11T10:06:05.062Z,99724.20
2022-12-11T10:09:44.056Z,99718.40
2022-12-11T10:13:26.025Z,99704.98
2022-12-11T10:16:58.042Z,99698.01
2022-12-11T10:20:28.301Z,99682.02
2022-12-11T10:24:01.175Z,99681.13
2022-12-11T10:27:32.616Z,99673.12
2022-12-11T10:31:12.558Z,99669.00
2022-12-11T10:34:48.217Z,99663.33
2022-12-11T10:38:21.645Z,99661.38
2022-12-11T10:41:51.108Z,99659.45
2022-12-11T10:45:20.429Z,99657.33
2022-12-11T10:48:53.524Z,99651.98
2022-12-11T10:52:28.120Z,99647.48
2022-12-11T10:55:55.253Z,99647.52
2022-12-11T10:59:27.256Z,99638.11
2022-12-11T11:02:54.100Z,99628.38
2022-12-11T11:06:23.625Z,99621.03
2022-12-11T11:09:51.876Z,99609.95
2022-12-11T11:13:19.937Z,99600.95
2022-12-11T11:16:48.444Z,99597.05
2022-12-11T11:20:20.159Z,99592.27
2022-12-11T11:23:53.339Z,99586.84
2022-12-11T11:27:24.021Z,99581.45
2022-12-11T11:31:01.715Z,99581.61
2022-12-11T11:34:31.332Z,99589.58
2022-12-11T11:38:05.262Z,99586.08
2022-12-11T11:41:42.788Z,99579.36
2022-12-11T11:45:16.942Z,99577.80
2022-12-11T11:48:52.646Z,99578.75
2022-12-11T11:52:37.722Z,99580.08
2022-12-11T11:56:17.778Z,99579.91
2022-12-11T11:59:48.469Z,99578.33
2022-12-11T12:03:19.829Z,99581.70
2022-12-11T12:07:09.007Z,99580.55
2022-12-11T12:10:45.077Z,99579.77
2022-12-11T12:14:51.218Z,99573.86
2022-12-11T12:18:22.769Z,99569.48
2022-12-11T12:21:53.237Z,99566.96
2022-12-11T12:25:27.021Z,99563.58
2022-12-11T12:28:54.484Z,99560.81
2022-12-11T12:32:31.690Z,99559.83
2022-12-11T12:36:16.980Z,99566.02
2022-12-11T12:39:58.517Z,99561.14
2022-12-11T12:43:44.681Z,99565.74
2022-12-11T12:47:17.196Z,99565.40
2022-12-11T12:50:48.102Z,99558.17
2022-12-11T12:54:18.832Z,99551.83
2022-12-11T12:57:51.944Z,99553.00
2022-12-11T13:01:23.996Z,99554.17
2022-12-11T13:05:00.625Z,99550.77
2022-12-11T13:08:30.820Z,99552.14
2022-12-11T13:11:58.939Z,99549.58
2022-12-11T13:15:44.189Z,99545.44
2022-12-11T13:19:28.882Z,99544.00
2022-12-11T13:23:10.421Z,99545.19
2022-12-11T13:26:37.200Z,99547.23
2022-12-11T13:30:23.167Z,99543.56
2022-12-11T13:33:53.510Z,99543.50
2022-12-11T13:37:28.943Z,99538.44
2022-12-11T13:41:00.662Z,99533.90
2022-12-11T13:44:41.016Z,99529.98
2022-12-11T13:48:19.150Z,99525.43
2022-12-11T13:51:58.004Z,99528.88
2022-12-11T13:55:28.845Z,99531.98
2022-12-11T13:58:57.945Z,99534.73
2022-12-11T14:02:29.339Z,99537.30
2022-12-11T14:05:57.373Z,99534.80
2022-12-11T14:09:31.446Z,99539.92
2022-12-11T14:13:04.584Z,99545.23
2022-12-11T14:16:34.676Z,99545.02
2022-12-11T14:20:10.081Z,99545.29
2022-12-11T14:23:39.413Z,99543.22
2022-12-11T14:27:17.482Z,99543.14
2022-12-11T14:30:49.916Z,99536.95
2022-12-11T14:34:21.157Z,99531.52
2022-12-11T14:37:48.373Z,99525.45
2022-12-11T14:41:20.538Z,99515.74
2022-12-11T14:44:55.846Z,99512.41
2022-12-11T14:48:27.275Z,99507.72
2022-12-11T14:51:59.796Z,99512.02
2022-12-11T14:55:28.756Z,99512.59
2022-12-11T14:59:01.626Z,99514.87
2022-12-11T15:02:32.673Z,99514.74
2022-12-11T15:06:00.236Z,99507.90
2022-12-11T15:09:30.802Z,99515.73
2022-12-11T15:12:58.577Z,99511.65
2022-12-11T15:16:34.890Z,99514.35
2022-12-11T15:20:07.763Z,99507.64
2022-12-11T15:23:36.492Z,99503.83
2022-12-11T15:27:03.738Z,99501.74
2022-12-11T15:30:36.327Z,99507.27
2022-12-11T15:34:06.139Z,99508.39
2022-12-11T15:37:38.567Z,99505.91
2022-12-11T15:41:09.438Z,99498.65
2022-12-11T15:44:54.670Z,99501.88
2022-12-11T15:48:29.754Z,99500.91
2022-12-11T15:51:59.399Z,99500.75
2022-12-11T15:55:43.929Z,99498.73
2022-12-11T15:59:13.110Z,99496.38
2022-12-11T16:02:41.985Z,99494.38
2022-12-11T16:06:14.187Z,99503.55
2022-12-11T16:09:45.897Z,99501.17
2022-12-11T16:13:14.540Z,99501.67
2022-12-11T16:16:43.988Z,99501.50
2022-12-11T16:20:17.261Z,99506.46
2022-12-11T16:23:50.785Z,99502.94
2022-12-11T16:27:23.200Z,99498.70
2022-12-11T16:30:51.554Z,99500.68
2022-12-11T16:34:19.506Z,99501.33
2022-12-11T16:37:48.628Z,99494.94
2022-12-11T16:41:17.647Z,99493.31
2022-12-11T16:44:50.357Z,99492.89
2022-12-11T16:48:21.749Z,99489.35
2022-12-11T16:51:53.241Z,99487.99
2022-12-11T16:55:22.436Z,99481.95
2022-12-11T16:58:49.696Z,99481.63
2022-12-11T17:02:21.619Z,99473.05
2022-12-11T17:05:51.341Z,99471.89
2022-12-11T17:09:35.903Z,99468.12
2022-12-11T17:13:07.790Z,99462.48
2022-12-11T17:16:40.465Z,99459.78
2022-12-11T17:20:16.014Z,99455.23
2022-12-11T17:23:49.794Z,99452.72
2022-12-11T17:27:21.020Z,99449.87
2022-12-11T17:31:09.390Z,99448.17
2022-12-11T17:34:38.926Z,99440.30
2022-12-11T17:38:07.665Z,99447.17
2022-12-11T17:41:34.992Z,99443.58
2022-12-11T17:45:02.351Z,99442.71
2022-12-11T17:48:33.824Z,99440.14
2022-12-11T17:52:04.242Z,99442.98
2022-12-11T17:55:34.817Z,99441.93
2022-12-11T17:59:03.733Z,99447.49
2022-12-11T18:02:36.227Z,99443.52
2022-12-11T18:06:15.307Z,99443.92
2022-12-11T18:09:46.555Z,99447.15
2022-12-11T18:13:22.584Z,99450.41
2022-12-11T18:16:56.776Z,99445.77
2022-12-11T18:20:36.223Z,99453.48
2022-12-11T18:24:17.828Z,99445.39
2022-12-11T18:27:56.673Z,99449.98
2022-12-11T18:31:40.477Z,99454.65
2022-12-11T18:35:25.802Z,99447.69
2022-12-11T18:39:04.415Z,99450.52
2022-12-11T18:42:41.720Z,99446.53
2022-12-11T18:46:23.301Z,99447.34
2022-12-11T18:49:56.157Z,99448.04
2022-12-11T18:53:29.357Z,99443.31
2022-12-11T18:56:57.235Z,99443.94
2022-12-11T19:00:31.730Z,99443.33
2022-12-11T19:04:05.560Z,99439.97
2022-12-11T19:07:36.820Z,99439.34
2022-12-11T19:11:05.288Z,99439.34
2022-12-11T19:14:33.344Z,99437.80
2022-12-11T19:18:00.012Z,99437.53
2022-12-11T19:21:29.029Z,99435.89
2022-12-11T19:24:57.694Z,99433.94
2022-12-11T19:28:27.144Z,99436.83
2022-12-11T19:31:59.114Z,99438.81
2022-12-11T19:35:31.347Z,99439.91
2022-12-11T19:39:13.211Z,99440.16
2022-12-11T19:42:46.521Z,99434.19
2022-12-11T19:46:15.770Z,99430.17
2022-12-11T19:49:44.597Z,99427.34
2022-12-11T19:53:15.759Z,99429.11
2022-12-11T19:56:46.508Z,99426.44
2022-12-11T20:00:22.937Z,99428.17
2022-12-11T20:03:59.866Z,99429.94
2022-12-11T20:07:34.483Z,99427.93
2022-12-11T20:11:18.342Z,99425.77
2022-12-11T20:14:53.913Z,99426.27
2022-12-11T20:18:29.104Z,99419.14
2022-12-11T20:22:11.623Z,99425.23
2022-12-11T20:25:45.928Z,99419.83
2022-12-11T20:29:20.700Z,99409.44
2022-12-11T20:32:52.963Z,99404.79
2022-12-11T20:36:29.964Z,99404.64
2022-12-11T20:39:57.752Z,99402.83
2022-12-11T20:43:38.386Z,99400.77
2022-12-11T20:47:08.252Z,99393.17
2022-12-11T20:50:38.796Z,99394.23
2022-12-11T20:54:07.149Z,99391.26
2022-12-11T20:57:45.392Z,99387.64
2022-12-11T21:01:20.384Z,99390.48
2022-12-11T21:04:51.562Z,99389.73
2022-12-11T21:08:30.395Z,99393.36
2022-12-11T21:12:05.479Z,99393.90
2022-12-11T21:15:52.351Z,99388.55
2022-12-11T21:19:31.793Z,99389.58
2022-12-11T21:23:07.572Z,99388.39
2022-12-11T21:26:34.934Z,99384.06
2022-12-11T21:30:20.319Z,99383.64
2022-12-11T21:34:00.841Z,99381.45
2022-12-11T21:37:31.531Z,99376.08
2022-12-11T21:41:00.308Z,99377.70
2022-12-11T21:45:37.167Z,99371.47
2022-12-11T21:48:35.143Z,99370.02
2022-12-11T21:52:10.035Z,99363.14
2022-12-11T21:55:46.990Z,99360.58
2022-12-11T21:59:18.119Z,99357.89
2022-12-11T22:02:48.453Z,99358.27
2022-12-11T22:06:16.223Z,99355.45
2022-12-11T22:09:46.575Z,99354.98
2022-12-11T22:13:15.469Z,99348.55
2022-12-11T22:16:49.066Z,99349.61
2022-12-11T22:20:23.437Z,99351.68
2022-12-11T22:23:53.510Z,99349.04
2022-12-11T22:27:25.499Z,99352.91
2022-12-11T22:30:55.559Z,99347.38
2022-12-11T22:34:40.770Z,99347.62
2022-12-11T22:38:11.233Z,99347.19
2022-12-11T22:41:55.653Z,99343.85
2022-12-11T22:45:24.450Z,99347.39
2022-12-11T22:48:52.362Z,99350.05
2022-12-11T22:52:19.879Z,99350.92
2022-12-11T22:55:49.267Z,99355.21
2022-12-11T22:59:17.693Z,99355.26
2022-12-11T23:02:46.541Z,99357.26
2022-12-11T23:06:27.210Z,99358.37
2022-12-11T23:10:02.485Z,99356.64
2022-12-11T23:13:41.472Z,99358.21
2022-12-11T23:17:10.844Z,99352.85
2022-12-11T23:20:41.573Z,99355.45
2022-12-11T23:24:09.485Z,99359.34
2022-12-11T23:27:38.582Z,99359.04
2022-12-11T23:31:06.860Z,99353.13
2022-12-11T23:34:34.025Z,99363.29
2022-12-11T23:38:04.609Z,99362.41
2022-12-11T23:41:34.271Z,99362.17
2022-12-11T23:45:04.221Z,99366.50
2022-12-11T23:48:34.402Z,99362.98
2022-12-11T23:52:02.717Z,99360.73
2022-12-11T23:55:32.953Z,99363.75
2022-12-11T23:59:01.666Z,99366.30
